Time;durP1;ratioP1;P1;durP2;ratioP2;P2;SDS_P1;SDS_P2;PMS_P1;PMS_P2;Temp;Humidity;BMP_temperature;BMP_pressure;BME280_temperature;BME280_humidity;BME280_pressure;Samples;Min_cycle;Max_cycle;Signal;HPM_P1;HPM_P2
2022/03/02 00:00:15;;;;;;;38.05;24.58;;;6.80;99.90;;;;;;5032055;28;20575;-55
2022/03/02 00:02:42;;;;;;;33.85;25.35;;;6.80;99.90;;;;;;5032647;28;20503;-52
2022/03/02 00:05:08;;;;;;;40.17;25.98;;;6.70;99.90;;;;;;5032628;28;20057;-53
2022/03/02 00:07:33;;;;;;;38.15;24.70;;;6.80;99.90;;;;;;5032086;28;20033;-51
2022/03/02 00:09:59;;;;;;;35.73;24.87;;;6.70;99.90;;;;;;5032315;28;20037;-51
2022/03/02 00:12:24;;;;;;;37.03;25.80;;;6.70;99.90;;;;;;5031764;28;20425;-50
2022/03/02 00:14:50;;;;;;;35.03;24.70;;;6.70;99.90;;;;;;5031936;28;20045;-51
2022/03/02 00:17:15;;;;;;;37.67;25.47;;;6.70;99.90;;;;;;5032577;28;20029;-52
2022/03/02 00:19:41;;;;;;;37.67;25.50;;;6.70;99.90;;;;;;5032729;28;20103;-53
2022/03/02 00:22:07;;;;;;;35.63;25.30;;;6.60;99.90;;;;;;5031842;28;20068;-51
2022/03/02 00:24:33;;;;;;;35.03;25.52;;;6.60;99.90;;;;;;5032280;28;20038;-51
2022/03/02 00:26:59;;;;;;;39.13;25.07;;;6.60;99.90;;;;;;5032109;28;20052;-52
2022/03/02 00:29:25;;;;;;;34.97;26.23;;;6.60;99.90;;;;;;5031915;28;20707;-54
2022/03/02 00:31:52;;;;;;;39.47;27.05;;;6.60;99.90;;;;;;5032127;28;20048;-51
2022/03/02 00:34:17;;;;;;;41.22;26.13;;;6.70;99.90;;;;;;5015446;28;20120;-51
2022/03/02 00:36:43;;;;;;;41.10;26.47;;;6.60;99.90;;;;;;5016512;28;20105;-51
2022/03/02 00:39:09;;;;;;;35.27;25.57;;;6.60;99.90;;;;;;5032756;28;20491;-54
2022/03/02 00:41:35;;;;;;;37.92;27.27;;;6.60;99.90;;;;;;5032118;28;20080;-51
2022/03/02 00:44:01;;;;;;;39.97;28.17;;;6.60;99.90;;;;;;5032335;28;20902;-54
2022/03/02 00:46:29;;;;;;;37.50;27.90;;;6.60;99.90;;;;;;5032281;28;20034;-52
2022/03/02 00:49:00;;;;;;;39.25;26.00;;;6.60;99.90;;;;;;5031437;28;20037;-52
2022/03/02 00:51:26;;;;;;;36.58;26.27;;;6.60;99.90;;;;;;5032134;28;20495;-51
2022/03/02 00:53:52;;;;;;;36.45;26.52;;;6.60;99.90;;;;;;5032010;28;20508;-51
2022/03/02 00:56:19;;;;;;;38.47;26.42;;;6.60;99.90;;;;;;5031966;28;20072;-50
2022/03/02 00:58:44;;;;;;;;;;;6.60;99.90;;;;;;5032693;28;20080;-55
2022/03/02 01:01:10;;;;;;;35.10;24.98;;;6.60;99.90;;;;;;5031789;28;19973;-53
2022/03/02 01:03:36;;;;;;;38.58;26.75;;;6.60;99.90;;;;;;5031240;28;20041;-53
2022/03/02 01:06:03;;;;;;;36.90;25.47;;;6.60;99.90;;;;;;5031368;28;20325;-51
2022/03/02 01:08:29;;;;;;;39.40;27.33;;;6.60;99.90;;;;;;5013199;28;20049;-52
2022/03/02 01:10:55;;;;;;;35.60;25.85;;;6.50;99.90;;;;;;5031565;28;20112;-51
2022/03/02 01:13:21;;;;;;;38.70;26.55;;;6.50;99.90;;;;;;5031153;28;20040;-53
2022/03/02 01:15:46;;;;;;;37.20;26.20;;;6.50;99.90;;;;;;5030903;28;20095;-52
2022/03/02 01:18:12;;;;;;;40.50;26.17;;;6.50;99.90;;;;;;5030796;28;20041;-51
2022/03/02 01:20:38;;;;;;;38.20;27.33;;;6.50;99.90;;;;;;5030712;28;20045;-51
2022/03/02 01:23:04;;;;;;;36.83;25.57;;;6.50;99.90;;;;;;5031492;28;20040;-52
2022/03/02 01:25:29;;;;;;;33.77;25.60;;;6.40;99.90;;;;;;5030713;28;20310;-54
2022/03/02 01:27:55;;;;;;;51.13;28.07;;;6.40;99.90;;;;;;5025898;28;20370;-51
2022/03/02 01:30:21;;;;;;;38.23;25.10;;;6.40;99.90;;;;;;5030595;28;20037;-51
2022/03/02 01:32:47;;;;;;;34.53;25.42;;;6.40;99.90;;;;;;5030841;28;20045;-52
2022/03/02 01:35:13;;;;;;;40.80;26.57;;;6.40;99.90;;;;;;5031083;28;20514;-52
2022/03/02 01:37:38;;;;;;;36.90;26.80;;;6.30;99.90;;;;;;5031176;28;20556;-52
2022/03/02 01:40:09;;;;;;;36.63;27.40;;;6.30;99.90;;;;;;5031305;28;20050;-50
2022/03/02 01:42:38;;;;;;;39.88;26.80;;;6.30;99.90;;;;;;5013314;28;20037;-50
2022/03/02 01:45:06;;;;;;;39.85;26.20;;;6.30;99.90;;;;;;5030344;28;20037;-51
2022/03/02 01:47:33;;;;;;;42.28;27.40;;;6.20;99.90;;;;;;5031368;28;20050;-52
2022/03/02 01:49:59;;;;;;;37.70;27.75;;;6.20;99.90;;;;;;5030903;28;20556;-51
2022/03/02 01:52:24;;;;;;;41.72;26.30;;;6.10;99.90;;;;;;5031331;28;20084;-51
2022/03/02 01:54:50;;;;;;;37.03;26.87;;;6.10;99.90;;;;;;5030629;28;20414;-53
2022/03/02 01:57:16;;;;;;;36.28;25.75;;;6.10;99.90;;;;;;5030929;28;20430;-53
2022/03/02 01:59:41;;;;;;;37.88;25.80;;;6.10;99.90;;;;;;5030464;28;20045;-50
2022/03/02 02:02:07;;;;;;;52.73;27.73;;;6.10;99.90;;;;;;5030714;28;20132;-54
2022/03/02 02:04:33;;;;;;;41.35;26.88;;;6.10;99.90;;;;;;5030329;28;20060;-55
2022/03/02 02:06:58;;;;;;;41.27;28.07;;;6.10;99.90;;;;;;5030199;28;20491;-52
2022/03/02 02:09:24;;;;;;;36.30;26.70;;;6.00;99.90;;;;;;5030446;28;20132;-54
2022/03/02 02:11:50;;;;;;;38.63;27.50;;;6.00;99.90;;;;;;5012422;28;20037;-51
2022/03/02 02:14:15;;;;;;;40.83;26.33;;;6.00;99.90;;;;;;5030040;28;20068;-52
2022/03/02 02:16:41;;;;;;;37.00;26.45;;;6.00;99.90;;;;;;5029879;28;20494;-53
2022/03/02 02:19:07;;;;;;;40.57;26.87;;;6.00;99.90;;;;;;5030183;28;20064;-52
2022/03/02 02:21:32;;;;;;;38.13;26.40;;;6.00;99.90;;;;;;5030110;28;20301;-53
2022/03/02 02:23:58;;;;;;;42.57;28.03;;;6.00;99.90;;;;;;5030330;28;20466;-52
2022/03/02 02:26:25;;;;;;;39.10;26.67;;;6.00;99.90;;;;;;5029533;28;20410;-52
2022/03/02 02:28:51;;;;;;;;;;;6.00;99.90;;;;;;5030121;28;20041;-51
2022/03/02 02:31:17;;;;;;;35.47;25.75;;;6.00;99.90;;;;;;5029503;28;19961;-51
2022/03/02 02:33:43;;;;;;;38.88;25.77;;;6.00;99.90;;;;;;5029928;28;20037;-52
2022/03/02 02:36:08;;;;;;;39.80;27.67;;;6.00;99.90;;;;;;5030159;28;20564;-51
2022/03/02 02:38:34;;;;;;;41.57;26.87;;;6.00;99.90;;;;;;5030356;28;20056;-52
2022/03/02 02:41:00;;;;;;;39.38;27.55;;;6.00;99.90;;;;;;5029821;28;20038;-51
2022/03/02 02:43:26;;;;;;;39.83;26.87;;;6.00;99.90;;;;;;5029453;28;20061;-53
2022/03/02 02:45:52;;;;;;;40.58;27.45;;;6.00;99.90;;;;;;5029926;28;20037;-50
2022/03/02 02:48:18;;;;;;;;;;;6.00;99.90;;;;;;5029765;28;20095;-51
2022/03/02 02:50:44;;;;;;;37.90;25.45;;;6.00;99.90;;;;;;5012147;28;20263;-51
2022/03/02 02:53:11;;;;;;;38.55;26.83;;;6.00;99.90;;;;;;5029505;28;20258;-50
2022/03/02 02:55:38;;;;;;;40.92;27.17;;;6.00;99.90;;;;;;5030265;28;20064;-56
2022/03/02 02:58:05;;;;;;;40.75;28.08;;;6.00;99.90;;;;;;5028867;28;20510;-51
2022/03/02 03:00:33;;;;;;;47.50;29.88;;;6.00;99.90;;;;;;5029122;28;20054;-55
2022/03/02 03:03:00;;;;;;;39.30;26.30;;;6.00;99.90;;;;;;5028821;28;20406;-51
2022/03/02 03:05:29;;;;;;;39.05;26.98;;;6.00;99.90;;;;;;5028367;28;20044;-54
2022/03/02 03:07:55;;;;;;;40.45;27.25;;;6.00;99.90;;;;;;5028638;28;20044;-51
2022/03/02 03:10:23;;;;;;;42.75;28.08;;;6.00;99.90;;;;;;5029398;28;20063;-54
2022/03/02 03:12:49;;;;;;;40.60;27.25;;;6.00;99.90;;;;;;5029020;28;20050;-53
2022/03/02 03:15:18;;;;;;;39.67;27.75;;;6.00;99.90;;;;;;5029410;28;20048;-51
2022/03/02 03:17:45;;;;;;;41.47;27.27;;;6.00;99.90;;;;;;5010728;28;20041;-51
2022/03/02 03:20:15;;;;;;;42.42;27.63;;;6.00;99.90;;;;;;5029643;28;20038;-52
2022/03/02 03:22:41;;;;;;;41.92;29.40;;;6.00;99.90;;;;;;5029217;28;20133;-52
2022/03/02 03:25:08;;;;;;;40.97;27.52;;;6.00;99.90;;;;;;5028782;28;20498;-51
2022/03/02 03:27:35;;;;;;;43.58;26.80;;;6.00;99.90;;;;;;5029861;28;20073;-51
2022/03/02 03:30:00;;;;;;;42.28;27.05;;;6.00;99.90;;;;;;5029795;28;20036;-50
2022/03/02 03:32:26;;;;;;;42.47;27.83;;;6.00;99.90;;;;;;5029817;28;20033;-53
2022/03/02 03:34:52;;;;;;;39.65;27.77;;;5.90;99.90;;;;;;5029356;28;20034;-50
2022/03/02 03:37:19;;;;;;;39.25;26.85;;;5.90;99.90;;;;;;5029815;28;20099;-51
2022/03/02 03:39:44;;;;;;;43.42;28.52;;;5.90;99.90;;;;;;5029163;28;20421;-53
2022/03/02 03:42:10;;;;;;;44.03;28.60;;;5.90;99.90;;;;;;5029858;28;20116;-51
2022/03/02 03:44:37;;;;;;;43.38;27.23;;;5.90;99.90;;;;;;5033289;28;20033;-52
2022/03/02 03:47:04;;;;;;;41.10;27.20;;;5.90;99.90;;;;;;5033256;28;20112;-52
2022/03/02 03:49:29;;;;;;;43.00;28.05;;;5.90;99.90;;;;;;5033231;28;20124;-54
2022/03/02 03:51:55;;;;;;;44.87;28.60;;;5.90;99.90;;;;;;5033063;28;20133;-52
2022/03/02 03:54:21;;;;;;;41.73;26.47;;;5.90;99.90;;;;;;5032403;28;20037;-51
2022/03/02 03:56:46;;;;;;;45.00;28.80;;;5.90;99.90;;;;;;5032681;28;20457;-51
2022/03/02 03:59:12;;;;;;;43.55;29.38;;;5.80;99.90;;;;;;5033004;28;20030;-54
2022/03/02 04:01:37;;;;;;;42.20;29.00;;;5.80;99.90;;;;;;5032430;28;20083;-53
2022/03/02 04:04:03;;;;;;;42.40;28.10;;;5.80;99.90;;;;;;5032377;28;20073;-50
2022/03/02 04:06:29;;;;;;;38.50;26.83;;;5.70;99.90;;;;;;5032479;28;20049;-50
2022/03/02 04:08:54;;;;;;;40.33;26.98;;;5.80;99.90;;;;;;5032230;28;20041;-53
2022/03/02 04:11:20;;;;;;;38.90;27.67;;;5.70;99.90;;;;;;5032420;28;20049;-53
2022/03/02 04:13:45;;;;;;;38.73;27.53;;;5.70;99.90;;;;;;5033066;28;20645;-51
2022/03/02 04:16:11;;;;;;;40.03;25.77;;;5.70;99.90;;;;;;5032459;28;20038;-50
2022/03/02 04:18:37;;;;;;;47.07;28.20;;;5.70;99.90;;;;;;5033180;28;20394;-53
2022/03/02 04:21:02;;;;;;;40.42;28.38;;;5.70;99.90;;;;;;5032403;28;20506;-54
2022/03/02 04:23:29;;;;;;;38.93;27.57;;;5.70;99.90;;;;;;5032096;28;20037;-51
2022/03/02 04:25:54;;;;;;;41.05;27.70;;;5.70;99.90;;;;;;4998022;28;20053;-50
2022/03/02 04:28:21;;;;;;;42.90;28.90;;;5.70;99.90;;;;;;5032310;28;20029;-50
2022/03/02 04:30:46;;;;;;;;;;;5.70;99.90;;;;;;5032842;28;20406;-51
2022/03/02 04:33:12;;;;;;;36.10;24.88;;;5.60;99.90;;;;;;5032024;28;19924;-50
2022/03/02 04:35:40;;;;;;;37.53;25.02;;;5.60;99.90;;;;;;5032101;28;20041;-53
2022/03/02 04:38:05;;;;;;;45.75;29.80;;;5.60;99.90;;;;;;5031418;28;20095;-51
2022/03/02 04:40:31;;;;;;;38.93;26.93;;;5.60;99.90;;;;;;5032216;28;20041;-50
2022/03/02 04:42:57;;;;;;;42.87;27.60;;;5.60;99.90;;;;;;5031552;28;20316;-52
2022/03/02 04:45:27;;;;;;;40.67;27.60;;;5.60;99.90;;;;;;5031721;28;20446;-51
2022/03/02 04:47:53;;;;;;;39.22;26.75;;;5.60;99.90;;;;;;5031867;28;20038;-51
2022/03/02 04:50:22;;;;;;;42.08;27.80;;;5.60;99.90;;;;;;5032029;28;20390;-51
2022/03/02 04:52:49;;;;;;;38.72;27.02;;;5.60;99.90;;;;;;5031313;28;20406;-54
2022/03/02 04:55:16;;;;;;;43.30;27.80;;;5.60;99.90;;;;;;5030795;28;20462;-52
2022/03/02 04:57:47;;;;;;;39.75;27.17;;;5.60;99.90;;;;;;5031662;28;20037;-52
2022/03/02 05:00:22;;;;;;;40.03;27.95;;;5.60;99.90;;;;;;5028770;28;20041;-53
2022/03/02 05:02:47;;;;;;;43.90;28.88;;;5.60;99.90;;;;;;5031485;28;20038;-53
2022/03/02 05:05:17;;;;;;;44.80;28.23;;;5.50;99.90;;;;;;5030749;28;20045;-51
2022/03/02 05:07:43;;;;;;;42.08;27.98;;;5.50;99.90;;;;;;5031548;28;20160;-52
2022/03/02 05:10:09;;;;;;;;;;;5.50;99.90;;;;;;5018932;28;20103;-51
2022/03/02 05:12:35;;;;;;;40.85;26.23;;;5.50;99.90;;;;;;5031094;28;19917;-51
2022/03/02 05:15:02;;;;;;;46.30;28.10;;;5.50;99.90;;;;;;5030802;28;20044;-51
2022/03/02 05:17:27;;;;;;;40.15;28.08;;;5.50;99.90;;;;;;5031843;28;20128;-51
2022/03/02 05:19:53;;;;;;;41.60;27.83;;;5.50;99.90;;;;;;5030719;28;20622;-52
2022/03/02 05:22:18;;;;;;;45.73;28.53;;;5.50;99.90;;;;;;5013438;28;20033;-51
2022/03/02 05:24:44;;;;;;;38.60;26.13;;;5.50;99.90;;;;;;5031019;28;20041;-53
2022/03/02 05:27:09;;;;;;;40.50;28.53;;;5.50;99.90;;;;;;5031376;28;20046;-52
2022/03/02 05:29:36;;;;;;;40.23;26.63;;;5.50;99.90;;;;;;4997429;28;20045;-51
2022/03/02 05:32:03;;;;;;;42.95;28.42;;;5.40;99.90;;;;;;5031055;28;20037;-50
2022/03/02 05:34:28;;;;;;;38.78;26.25;;;5.40;99.90;;;;;;5031105;28;20048;-57
2022/03/02 05:36:54;;;;;;;48.33;28.90;;;5.40;99.90;;;;;;5031122;28;20045;-54
2022/03/02 05:39:19;;;;;;;46.03;29.50;;;5.40;99.90;;;;;;5031429;28;20402;-50
2022/03/02 05:41:45;;;;;;;39.73;27.50;;;5.40;99.90;;;;;;5030791;28;20120;-53
2022/03/02 05:44:12;;;;;;;39.60;27.07;;;5.30;99.90;;;;;;5031287;28;20040;-51
2022/03/02 05:46:38;;;;;;;45.35;29.17;;;5.30;99.90;;;;;;5030694;28;20474;-55
2022/03/02 05:49:05;;;;;;;41.33;28.95;;;5.30;99.90;;;;;;5031223;28;20041;-53
2022/03/02 05:51:31;;;;;;;44.50;29.33;;;5.30;99.90;;;;;;5031022;28;20051;-51
2022/03/02 05:53:58;;;;;;;39.97;27.30;;;5.30;99.90;;;;;;5031406;28;20410;-54
2022/03/02 05:56:24;;;;;;;49.20;28.27;;;5.30;99.90;;;;;;5031001;28;20041;-56
2022/03/02 05:58:53;;;;;;;43.50;27.65;;;5.30;99.90;;;;;;5030753;28;20045;-53
2022/03/02 06:01:20;;;;;;;41.67;28.73;;;5.30;99.90;;;;;;5029689;28;20507;-53
2022/03/02 06:03:46;;;;;;;;;;;5.30;99.90;;;;;;5031363;28;20052;-53
2022/03/02 06:06:11;;;;;;;51.30;28.10;;;5.30;99.90;;;;;;5029396;28;19924;-50
2022/03/02 06:08:37;;;;;;;42.53;28.02;;;5.20;99.90;;;;;;5030410;28;20038;-50
2022/03/02 06:11:03;;;;;;;42.13;28.43;;;5.30;99.90;;;;;;5030036;28;20037;-52
2022/03/02 06:13:29;;;;;;;46.25;27.88;;;5.30;99.90;;;;;;5030367;28;20041;-56
2022/03/02 06:15:57;;;;;;;37.65;26.45;;;5.30;99.90;;;;;;5030085;28;20041;-51
2022/03/02 06:18:23;;;;;;;41.42;27.67;;;5.30;99.90;;;;;;5030364;28;20417;-52
2022/03/02 06:20:51;;;;;;;43.17;27.80;;;5.30;99.90;;;;;;5024926;28;20045;-50
2022/03/02 06:23:20;;;;;;;44.10;27.98;;;5.30;99.90;;;;;;5030013;28;20076;-57
2022/03/02 06:25:46;;;;;;;41.40;26.75;;;5.30;99.90;;;;;;5025861;28;20044;-53
2022/03/02 06:28:12;;;;;;;48.28;28.38;;;5.20;99.90;;;;;;5027803;28;20029;-51
2022/03/02 06:30:38;;;;;;;43.25;27.75;;;5.30;99.90;;;;;;5028751;28;20041;-50
2022/03/02 06:33:04;;;;;;;46.90;29.50;;;5.30;99.90;;;;;;5018404;28;20045;-55
2022/03/02 06:35:29;;;;;;;43.30;28.33;;;5.20;99.90;;;;;;4992829;28;20495;-55
2022/03/02 06:37:55;;;;;;;41.17;27.33;;;5.30;99.90;;;;;;5029021;28;20276;-54
2022/03/02 06:40:21;;;;;;;39.63;26.70;;;5.20;99.90;;;;;;5029606;28;20095;-53
2022/03/02 06:43:02;;;;;;;44.53;29.13;;;5.20;99.90;;;;;;5030081;28;20035;-53
2022/03/02 06:45:40;;;;;;;45.63;28.48;;;5.20;99.90;;;;;;5028754;28;20037;-50
2022/03/02 06:48:17;;;;;;;43.83;28.08;;;5.30;99.90;;;;;;5029943;28;20517;-50
2022/03/02 06:50:45;;;;;;;42.72;28.88;;;5.30;99.90;;;;;;5029720;28;20418;-51
2022/03/02 06:53:15;;;;;;;44.97;29.05;;;5.30;99.90;;;;;;5029551;28;20446;-55
2022/03/02 06:55:42;;;;;;;42.22;27.88;;;5.30;99.90;;;;;;5030596;28;20136;-56
2022/03/02 06:58:12;;;;;;;39.10;26.88;;;5.30;99.90;;;;;;5012503;28;20568;-51
2022/03/02 07:00:39;;;;;;;42.20;28.08;;;5.30;99.90;;;;;;5029799;28;20046;-53
2022/03/02 07:03:09;;;;;;;45.83;29.52;;;5.30;99.90;;;;;;5029638;28;20145;-50
2022/03/02 07:05:36;;;;;;;41.30;26.48;;;5.30;99.90;;;;;;5012667;28;20034;-50
2022/03/02 07:08:03;;;;;;;42.47;27.95;;;5.30;99.90;;;;;;5030347;28;20034;-53
2022/03/02 07:10:33;;;;;;;42.92;28.98;;;5.40;99.90;;;;;;5012214;28;20125;-51
2022/03/02 07:13:04;;;;;;;46.97;29.17;;;5.40;99.90;;;;;;5030034;28;20052;-55
2022/03/02 07:15:31;;;;;;;43.55;30.67;;;5.40;99.90;;;;;;5009775;28;20077;-51
2022/03/02 07:17:58;;;;;;;39.22;26.80;;;5.40;99.90;;;;;;5009667;28;20049;-53
2022/03/02 07:20:26;;;;;;;43.97;29.25;;;5.40;99.90;;;;;;5033343;28;20094;-53
2022/03/02 07:22:53;;;;;;;46.30;28.63;;;5.40;99.90;;;;;;5033263;28;20041;-51
2022/03/02 07:25:29;;;;;;;41.05;27.13;;;5.40;99.90;;;;;;5033309;28;20046;-50
2022/03/02 07:27:59;;;;;;;45.83;29.05;;;5.50;99.90;;;;;;5027929;28;20479;-51
2022/03/02 07:30:26;;;;;;;43.28;28.20;;;5.50;99.90;;;;;;5048680;28;20049;-52
2022/03/02 07:32:55;;;;;;;41.25;26.73;;;5.50;99.90;;;;;;5033123;28;20422;-53
2022/03/02 07:35:23;;;;;;;40.97;25.65;;;5.50;99.90;;;;;;5033248;28;20045;-56
2022/03/02 07:37:49;;;;;;;41.60;27.52;;;5.50;99.90;;;;;;5033623;28;20103;-56
2022/03/02 07:40:16;;;;;;;38.25;25.67;;;5.60;99.90;;;;;;5033730;28;20041;-53
2022/03/02 07:42:42;;;;;;;44.33;27.73;;;5.60;99.90;;;;;;5033210;28;20479;-53
2022/03/02 07:45:09;;;;;;;37.80;25.85;;;5.60;99.90;;;;;;5014694;28;20052;-56
2022/03/02 07:47:35;;;;;;;41.63;26.95;;;5.70;99.90;;;;;;5032301;28;20084;-50
2022/03/02 07:50:00;;;;;;;39.45;27.00;;;5.70;99.90;;;;;;5032385;28;20577;-55
2022/03/02 07:52:28;;;;;;;51.67;25.50;;;5.70;99.90;;;;;;5032807;28;20064;-56
2022/03/02 07:54:58;;;;;;;43.85;24.85;;;5.80;99.90;;;;;;5032532;28;20044;-57
2022/03/02 07:57:24;;;;;;;33.72;23.00;;;5.80;99.90;;;;;;5032322;28;20045;-56
2022/03/02 07:59:51;;;;;;;;;;;5.90;99.90;;;;;;5033111;28;20072;-53
2022/03/02 08:02:20;;;;;;;40.90;25.83;;;6.00;99.90;;;;;;5014646;28;20008;-52
2022/03/02 08:04:50;;;;;;;39.15;26.13;;;6.00;99.90;;;;;;5013112;28;20042;-52
2022/03/02 08:07:15;;;;;;;38.92;26.02;;;6.10;99.90;;;;;;5022965;28;20029;-56
2022/03/02 08:09:41;;;;;;;43.63;27.37;;;6.10;99.90;;;;;;5024127;28;20030;-57
2022/03/02 08:12:07;;;;;;;40.60;25.67;;;6.20;99.90;;;;;;5025960;28;20041;-54
2022/03/02 08:14:33;;;;;;;43.50;26.27;;;6.20;99.90;;;;;;5032092;28;20029;-53
2022/03/02 08:16:59;;;;;;;38.43;25.60;;;6.30;99.90;;;;;;5031637;28;20241;-54
2022/03/02 08:19:25;;;;;;;37.37;26.07;;;6.40;99.90;;;;;;5029959;28;20034;-55
2022/03/02 08:22:23;;;;;;;33.88;24.67;;;6.60;99.90;;;;;;5032132;28;20072;-56
2022/03/02 08:25:21;;;;;;;38.13;24.58;;;6.80;99.90;;;;;;5030287;28;20458;-57
2022/03/02 08:27:49;;;;;;;35.40;25.63;;;7.10;99.90;;;;;;5021083;28;20041;-55
2022/03/02 08:30:16;;;;;;;39.15;27.10;;;7.30;99.90;;;;;;5030929;28;20091;-54
2022/03/02 08:32:47;;;;;;;36.30;25.42;;;7.40;99.90;;;;;;5031826;28;20056;-55
2022/03/02 08:35:14;;;;;;;33.08;23.48;;;7.50;99.90;;;;;;5031394;28;20401;-51
2022/03/02 08:37:41;;;;;;;31.52;20.77;;;7.60;99.90;;;;;;5032318;28;20445;-57
2022/03/02 08:40:09;;;;;;;32.35;22.42;;;7.60;99.90;;;;;;5032044;28;20041;-54
2022/03/02 08:42:35;;;;;;;35.90;22.80;;;7.60;99.90;;;;;;5029763;28;20045;-56
2022/03/02 08:45:02;;;;;;;37.05;24.55;;;7.60;99.90;;;;;;5031682;28;20051;-54
2022/03/02 08:47:28;;;;;;;35.47;24.15;;;7.60;99.90;;;;;;5031547;28;20565;-56
2022/03/02 08:49:57;;;;;;;35.13;22.40;;;7.60;99.90;;;;;;5032756;28;20041;-53
2022/03/02 08:52:31;;;;;;;37.95;23.52;;;7.70;99.90;;;;;;5025516;28;20041;-57
2022/03/02 08:55:01;;;;;;;31.98;22.40;;;7.70;99.90;;;;;;5012870;28;20037;-51
2022/03/02 08:57:26;;;;;;;32.15;22.35;;;7.70;99.80;;;;;;5030531;28;20095;-55
2022/03/02 08:59:53;;;;;;;36.20;23.27;;;7.70;99.40;;;;;;5030476;28;20337;-52
2022/03/02 09:02:22;;;;;;;33.53;23.52;;;7.80;99.20;;;;;;5013092;28;20045;-53
2022/03/02 09:04:49;;;;;;;34.65;22.20;;;7.90;99.90;;;;;;5028901;28;20040;-55
2022/03/02 09:07:18;;;;;;;31.95;22.25;;;7.90;99.40;;;;;;5030561;28;20044;-52
2022/03/02 09:09:44;;;;;;;35.55;20.83;;;8.00;98.90;;;;;;5028581;28;20060;-58
2022/03/02 09:12:10;;;;;;;28.73;18.80;;;8.10;97.70;;;;;;5030528;28;20503;-53
2022/03/02 09:14:37;;;;;;;61.40;23.05;;;8.20;97.00;;;;;;5030354;28;20056;-56
2022/03/02 09:17:05;;;;;;;34.95;20.92;;;8.30;97.30;;;;;;5030602;28;20033;-58
2022/03/02 09:19:32;;;;;;;35.03;19.88;;;8.40;96.20;;;;;;5030793;28;20129;-55
2022/03/02 09:21:58;;;;;;;327.15;45.42;;;8.50;96.20;;;;;;5028962;28;20033;-56
2022/03/02 09:24:28;;;;;;;25.30;17.77;;;8.50;96.10;;;;;;5030157;28;20061;-55
2022/03/02 09:26:55;;;;;;;25.45;18.27;;;8.60;94.70;;;;;;5028801;28;20447;-54
2022/03/02 09:29:20;;;;;;;28.77;18.27;;;8.60;93.30;;;;;;5029969;28;20037;-56
2022/03/02 09:31:50;;;;;;;24.67;17.00;;;8.60;93.70;;;;;;5029914;28;20041;-56
2022/03/02 09:34:20;;;;;;;26.92;17.77;;;8.60;93.50;;;;;;5028006;28;20034;-53
2022/03/02 09:36:47;;;;;;;28.70;18.38;;;8.80;93.10;;;;;;5030054;28;20052;-53
2022/03/02 09:39:12;;;;;;;29.05;18.52;;;8.80;93.70;;;;;;5011929;28;20406;-56
2022/03/02 09:41:49;;;;;;;27.97;18.57;;;8.90;93.70;;;;;;5028939;28;20037;-52
2022/03/02 09:44:20;;;;;;;25.75;18.02;;;8.90;93.60;;;;;;5024350;28;20034;-52
2022/03/02 09:46:55;;;;;;;25.73;17.90;;;9.00;92.30;;;;;;5029326;28;20041;-50
2022/03/02 09:49:23;;;;;;;26.73;17.35;;;9.10;92.00;;;;;;5029066;28;20049;-53
2022/03/02 09:51:58;;;;;;;26.17;18.05;;;9.00;90.30;;;;;;5028850;28;20485;-52
2022/03/02 09:54:25;;;;;;;22.17;16.15;;;9.00;91.70;;;;;;5027989;28;20052;-55
2022/03/02 09:56:51;;;;;;;27.27;18.10;;;9.10;90.00;;;;;;5028736;28;20517;-53
2022/03/02 09:59:18;;;;;;;24.98;16.98;;;9.10;91.70;;;;;;5029645;28;20577;-56
2022/03/02 10:01:44;;;;;;;25.90;18.83;;;9.20;90.30;;;;;;5027824;28;20037;-55
2022/03/02 10:04:21;;;;;;;;;;;9.20;90.80;;;;;;5029869;28;20103;-50
2022/03/02 10:06:49;;;;;;;31.95;17.02;;;9.40;89.90;;;;;;5028585;28;19921;-56
2022/03/02 10:09:21;;;;;;;26.73;17.17;;;9.50;89.80;;;;;;5029374;28;20073;-55
2022/03/02 10:11:49;;;;;;;25.55;16.80;;;9.60;89.80;;;;;;5029240;28;20041;-56
2022/03/02 10:14:19;;;;;;;23.85;17.20;;;9.60;88.20;;;;;;5011298;28;20049;-54
2022/03/02 10:16:46;;;;;;;24.13;17.55;;;9.70;87.20;;;;;;5028327;28;20033;-57
2022/03/02 10:19:22;;;;;;;22.92;17.10;;;9.70;86.70;;;;;;5028893;28;20126;-55
2022/03/02 10:22:09;;;;;;;27.53;18.60;;;9.60;83.90;;;;;;5026796;28;20454;-53
2022/03/02 10:24:44;;;;;;;27.10;19.52;;;9.60;86.90;;;;;;5007522;28;20288;-54
2022/03/02 10:27:21;;;;;;;24.08;17.58;;;9.60;86.60;;;;;;5028717;28;20033;-56
2022/03/02 10:30:04;;;;;;;26.52;17.10;;;9.60;85.70;;;;;;5010260;28;20052;-53
2022/03/02 10:32:35;;;;;;;26.58;17.30;;;9.70;84.90;;;;;;5028702;28;20614;-54
2022/03/02 10:35:08;;;;;;;28.35;17.83;;;9.80;84.60;;;;;;5028467;28;20052;-55
2022/03/02 10:37:58;;;;;;;26.60;17.30;;;9.80;84.70;;;;;;5025723;28;20071;-53
2022/03/02 10:40:24;;;;;;;25.38;17.15;;;9.90;82.30;;;;;;5011636;28;20052;-53
2022/03/02 10:42:57;;;;;;;;;;;9.80;81.90;;;;;;5027947;28;20406;-53
2022/03/02 10:45:25;;;;;;;23.00;16.48;;;9.90;81.00;;;;;;5028266;28;19925;-57
2022/03/02 10:48:11;;;;;;;23.58;16.73;;;9.80;80.50;;;;;;5008732;28;20033;-52
2022/03/02 10:50:39;;;;;;;30.98;19.02;;;9.80;81.10;;;;;;5007581;28;20487;-54
2022/03/02 10:53:07;;;;;;;22.92;15.55;;;9.80;81.30;;;;;;5010798;28;20052;-51
2022/03/02 10:55:34;;;;;;;22.73;16.75;;;9.90;80.20;;;;;;5028699;28;20128;-54
2022/03/02 10:58:04;;;;;;;26.40;16.08;;;9.90;80.70;;;;;;5028629;28;20202;-53
2022/03/02 11:00:30;;;;;;;24.98;16.48;;;10.00;79.40;;;;;;5028432;28;20052;-56
2022/03/02 11:02:57;;;;;;;25.88;16.27;;;10.00;80.30;;;;;;5027399;28;20042;-55
2022/03/02 11:05:25;;;;;;;23.92;15.77;;;10.10;81.90;;;;;;5026218;28;20045;-53
2022/03/02 11:07:51;;;;;;;24.33;17.00;;;10.30;79.50;;;;;;5027823;28;20398;-55
2022/03/02 11:10:19;;;;;;;;;;;10.30;79.30;;;;;;5029266;28;20574;-54
2022/03/02 11:12:47;;;;;;;23.35;15.73;;;10.30;76.30;;;;;;5027411;28;19921;-52
2022/03/02 11:15:14;;;;;;;26.70;17.35;;;10.30;77.00;;;;;;5028068;28;20129;-55
2022/03/02 11:17:58;;;;;;;21.95;15.75;;;10.30;75.60;;;;;;5027990;28;20103;-51
2022/03/02 11:20:25;;;;;;;21.30;15.27;;;10.40;75.00;;;;;;5028499;28;20546;-53
2022/03/02 11:23:04;;;;;;;22.15;16.05;;;10.50;76.90;;;;;;5027963;28;20128;-51
2022/03/02 11:25:50;;;;;;;21.83;16.17;;;10.50;75.10;;;;;;5028156;28;20053;-56
2022/03/02 11:28:22;;;;;;;21.30;14.40;;;10.50;74.20;;;;;;5028314;28;20384;-51
2022/03/02 11:30:54;;;;;;;22.80;16.08;;;10.50;73.50;;;;;;5028100;28;20086;-55
2022/03/02 11:33:28;;;;;;;20.98;15.63;;;10.50;74.70;;;;;;5028440;28;20041;-56
2022/03/02 11:36:00;;;;;;;24.98;17.02;;;10.50;72.90;;;;;;5027225;28;20466;-56
2022/03/02 11:38:32;;;;;;;21.20;15.43;;;10.50;75.50;;;;;;5028836;28;20460;-53
2022/03/02 11:40:59;;;;;;;21.98;15.10;;;10.60;73.10;;;;;;5027806;28;20041;-50
2022/03/02 11:43:32;;;;;;;22.85;15.82;;;10.60;73.50;;;;;;5027303;28;20092;-56
2022/03/02 11:46:00;;;;;;;23.30;16.90;;;10.60;71.00;;;;;;5027145;28;20518;-53
2022/03/02 11:48:29;;;;;;;25.13;17.67;;;10.60;72.00;;;;;;5031914;28;20030;-52
2022/03/02 11:51:09;;;;;;;23.88;16.63;;;10.70;70.40;;;;;;5027661;28;20072;-51
2022/03/02 11:53:41;;;;;;;21.20;16.02;;;10.90;71.80;;;;;;5022052;28;20510;-55
2022/03/02 11:56:09;;;;;;;20.65;15.45;;;11.00;71.80;;;;;;5026780;28;20105;-55
2022/03/02 11:58:51;;;;;;;23.08;15.98;;;11.10;70.80;;;;;;5024566;28;20037;-55
2022/03/02 12:01:17;;;;;;;24.70;16.90;;;11.10;71.50;;;;;;5026610;28;20057;-53
2022/03/02 12:03:57;;;;;;;25.47;16.90;;;11.20;68.80;;;;;;5026945;28;20621;-55
2022/03/02 12:06:24;;;;;;;23.58;16.52;;;11.20;69.50;;;;;;5031587;28;20037;-52
2022/03/02 12:08:52;;;;;;;21.33;15.00;;;11.20;70.00;;;;;;5027846;28;20550;-51
2022/03/02 12:11:26;;;;;;;25.20;16.13;;;11.30;69.50;;;;;;5030797;28;20064;-53
2022/03/02 12:14:12;;;;;;;20.52;15.52;;;11.20;67.80;;;;;;5029659;28;20037;-55
2022/03/02 12:16:42;;;;;;;21.75;15.07;;;11.30;66.50;;;;;;5012946;28;20117;-56
2022/03/02 12:19:21;;;;;;;21.65;14.38;;;11.40;66.90;;;;;;5027836;28;20037;-52
2022/03/02 12:21:48;;;;;;;20.85;14.57;;;11.40;65.70;;;;;;5027867;28;20041;-52
2022/03/02 12:24:25;;;;;;;19.25;14.50;;;11.40;67.10;;;;;;5029170;28;20433;-52
2022/03/02 12:26:50;;;;;;;17.92;13.85;;;11.40;65.70;;;;;;5030129;28;20034;-53
2022/03/02 12:29:16;;;;;;;18.40;14.07;;;11.40;67.10;;;;;;5013196;28;20401;-51
2022/03/02 12:31:46;;;;;;;22.05;14.95;;;11.40;69.40;;;;;;5030934;28;20300;-53
2022/03/02 12:34:15;;;;;;;18.98;13.40;;;11.40;67.30;;;;;;5031208;28;20034;-51
2022/03/02 12:36:42;;;;;;;20.83;14.30;;;11.40;64.90;;;;;;5030786;28;20049;-56
2022/03/02 12:39:08;;;;;;;19.60;13.95;;;11.50;64.60;;;;;;5031210;28;20132;-55
2022/03/02 12:41:36;;;;;;;19.48;13.88;;;11.60;64.70;;;;;;5031158;28;20159;-53